Nearby METAR Reports


NZAA - Auckland Intl Ar, New Zealand
Distance from station: NW 162km
Updated: 15/08/2018 10:30
Light rain, Mostly cloudy
Light rain, Mostly cloudy
 Wind from WSW
Wind: WSW 39 km/h
Temperature: 13°C
Dew Point: 10°C
Humidity: 82%
Barometer: 1003 hPa
Summary: Light rain
Clouds: Mostly cloudy
Visibility: 5 km
Cloud details: Few Clouds 579 m
Mostly cloudy 884 m
Mostly cloudy 1341 m
2018/08/14 22:30 NZAA 142230Z AUTO 24021KT 4700 -RA FEW019/// BKN029/// BKN044/// 13/10 Q1003 BECMG 9999 TEMPO 6000 SHRA BKN012 FEW020TCU
NZWN - Wellington Intl, New Zealand
Distance from station: SSW 357km
Updated: 15/08/2018 10:30
Overcast
Overcast
 Wind from S
Wind: S 46 km/h
Temperature: 11°C
Dew Point: 9°C
Humidity: 88%
Barometer: 1001 hPa
Clouds: Overcast
Visibility: 10 km
Cloud details: Mostly cloudy 396 m
Overcast 1036 m
2018/08/14 22:30 NZWN 142230Z AUTO 19025KT 9999 BKN013/// OVC034/// 11/09 Q1001 BECMG BKN020 TEMPO BKN010
 
NZCH - Christchurch Int, New Zealand
Distance from station: SSW 647km
Updated: 15/08/2018 10:30
Mostly cloudy
Mostly cloudy
 Wind from WSW
Wind: WSW 7 km/h
Temperature: 9°C
Wind Chill: 8°C
Dew Point: 5°C
Humidity: 76%
Barometer: 1003 hPa
Clouds: Mostly cloudy
Visibility: 10 km
Cloud details: Mostly cloudy 2743 m
2018/08/14 22:30 NZCH 142230Z AUTO 24004KT 9999 BKN090/// 09/05 Q1003 NOSIG
YSNF - Norfolk Island A, Australia
Distance from station: NW 1258km
Updated: 15/08/2018 10:30
Partly cloudy
Partly cloudy
 Wind from SW
Wind: SW 19 km/h
Temperature: 18°C
Dew Point: 13°C
Humidity: 73%
Barometer: 1019 hPa
Clouds: Partly cloudy
Visibility: 10 km
Cloud details: Partly cloudy 488 m
2018/08/14 22:30 YSNF 142230Z 23010KT 9999 SCT016 18/13 Q1019